Time;durP1;ratioP1;P1;durP2;ratioP2;P2;SDS_P1;SDS_P2;PMS_P1;PMS_P2;Temp;Humidity;BMP_temperature;BMP_pressure;BME280_temperature;BME280_humidity;BME280_pressure;Samples;Min_cycle;Max_cycle;Signal;HPM_P1;HPM_P2
2023/01/10 00:01:31;;;;;;;81.03;27.50;;;;;;;5.60;100.00;99710.13;5047605;28;20039;-26
2023/01/10 00:03:56;;;;;;;78.70;28.67;;;;;;;5.57;100.00;99700.72;5049380;28;20533;-26
2023/01/10 00:06:22;;;;;;;81.38;29.70;;;;;;;5.47;100.00;99704.75;5048520;28;20731;-29
2023/01/10 00:08:47;;;;;;;74.82;27.05;;;;;;;5.42;100.00;99715.91;5047565;28;20025;-26
2023/01/10 00:13:57;;;;;;;75.55;27.75;;;;;;;5.49;100.00;99714.09;5038441;28;20041;-28
2023/01/10 00:16:22;;;;;;;78.30;26.80;;;;;;;5.29;100.00;99702.59;5037750;28;20029;-30
2023/01/10 00:18:48;;;;;;;76.85;24.92;;;;;;;5.47;100.00;99720.63;5039198;28;20043;-28
2023/01/10 00:21:14;;;;;;;75.70;26.23;;;;;;;5.40;100.00;99710.00;5037306;28;20118;-26
2023/01/10 00:23:40;;;;;;;72.10;25.60;;;;;;;5.54;100.00;99711.72;5038175;28;20037;-27
2023/01/10 00:26:06;;;;;;;68.13;24.63;;;;;;;5.68;100.00;99706.47;5039033;28;20131;-29
2023/01/10 00:28:35;;;;;;;77.03;25.60;;;;;;;5.71;100.00;99679.66;5036115;28;20836;-26
2023/01/10 00:31:05;;;;;;;74.78;29.15;;;;;;;5.78;100.00;99704.28;5031285;28;20409;-27
2023/01/10 00:33:31;;;;;;;75.07;26.90;;;;;;;5.71;100.00;99684.94;5032344;28;20120;-26
2023/01/10 00:35:58;;;;;;;73.13;26.42;;;;;;;6.03;100.00;99700.16;5032689;28;20056;-26
2023/01/10 00:38:23;;;;;;;83.25;26.55;;;;;;;6.06;100.00;99706.09;5036893;28;20069;-27
2023/01/10 00:40:49;;;;;;;62.15;25.58;;;;;;;5.90;100.00;99692.13;5040499;28;20108;-29
2023/01/10 00:46:00;;;;;;;68.40;23.38;;;;;;;5.51;100.00;99683.00;5052346;28;20131;-32
2023/01/10 00:48:25;;;;;;;67.13;24.75;;;;;;;5.51;100.00;99669.75;5051576;28;20032;-28
2023/01/10 00:50:51;;;;;;;72.47;24.98;;;;;;;5.73;100.00;99682.91;5024499;28;20417;-26
2023/01/10 00:53:16;;;;;;;69.93;26.60;;;;;;;5.96;100.00;99669.38;5041247;28;20026;-27
2023/01/10 00:55:42;;;;;;;64.40;25.65;;;;;;;5.89;100.00;99665.88;5040049;28;20086;-27
2023/01/10 00:58:10;;;;;;;72.40;24.55;;;;;;;5.52;100.00;99649.44;5042293;28;20033;-28
2023/01/10 01:00:38;;;;;;;62.63;24.98;;;;;;;5.44;100.00;99632.72;5037053;28;20525;-25
2023/01/10 01:03:04;;;;;;;;;;;;;;;5.59;100.00;99634.41;5038282;28;20034;-28
2023/01/10 01:05:30;;;;;;;65.25;23.55;;;;;;;5.60;100.00;99623.63;5039466;28;19920;-26
2023/01/10 01:07:55;;;;;;;67.82;23.92;;;;;;;5.79;100.00;99624.72;5038423;28;20021;-26
2023/01/10 01:10:27;;;;;;;56.60;22.77;;;;;;;5.91;100.00;99640.84;5036047;28;20416;-28
2023/01/10 01:12:57;;;;;;;57.08;23.20;;;;;;;5.80;100.00;99617.59;5031797;28;20037;-28
2023/01/10 01:15:25;;;;;;;58.28;22.23;;;;;;;5.96;100.00;99624.41;5032049;28;20040;-28
2023/01/10 01:17:50;;;;;;;56.67;22.58;;;;;;;5.90;100.00;99602.16;5031745;28;20044;-28
2023/01/10 01:20:16;;;;;;;57.53;22.30;;;;;;;6.07;100.00;99625.63;5031649;28;20033;-28
2023/01/10 01:22:42;;;;;;;62.60;23.58;;;;;;;6.07;100.00;99636.22;5031397;28;20026;-28
2023/01/10 01:25:08;;;;;;;63.00;24.05;;;;;;;6.11;100.00;99626.88;5035043;28;20792;-27
2023/01/10 01:27:33;;;;;;;58.92;24.05;;;;;;;6.19;100.00;99635.47;5040666;28;20413;-27
2023/01/10 01:30:00;;;;;;;60.90;23.88;;;;;;;6.16;100.00;99619.16;5045550;28;20029;-33
2023/01/10 01:32:25;;;;;;;63.97;26.30;;;;;;;5.98;100.00;99609.94;5050415;28;20434;-27
2023/01/10 01:34:50;;;;;;;70.38;26.88;;;;;;;6.12;100.00;99628.50;5051388;28;20028;-27
2023/01/10 01:37:18;;;;;;;74.63;27.00;;;;;;;6.00;100.00;99615.84;5049933;28;20040;-27
2023/01/10 01:39:45;;;;;;;86.63;31.27;;;;;;;5.99;100.00;99629.31;5049704;28;20039;-26
2023/01/10 01:42:32;;;;;;;78.22;29.45;;;;;;;5.86;100.00;99629.22;5049332;28;20416;-27
2023/01/10 01:45:07;;;;;;;80.70;29.23;;;;;;;5.70;100.00;99633.88;5051135;28;20567;-27
2023/01/10 01:47:41;;;;;;;90.00;29.88;;;;;;;5.41;100.00;99608.47;5050943;28;20283;-27
2023/01/10 01:50:14;;;;;;;90.72;30.08;;;;;;;5.58;100.00;99620.38;5049478;28;20036;-27
2023/01/10 01:52:39;;;;;;;88.72;30.88;;;;;;;5.28;100.00;99600.50;5050736;28;20087;-28
2023/01/10 01:55:05;;;;;;;103.30;34.25;;;;;;;5.15;100.00;99599.41;5051026;28;20025;-27
2023/01/10 01:57:32;;;;;;;107.30;36.85;;;;;;;5.22;100.00;99623.25;5051048;28;20524;-27
2023/01/10 02:00:00;;;;;;;116.28;35.25;;;;;;;5.14;100.00;99611.00;5049527;28;20039;-25
2023/01/10 02:02:29;;;;;;;98.50;35.90;;;;;;;5.18;100.00;99591.09;5050716;28;20075;-27
2023/01/10 02:05:01;;;;;;;96.30;33.05;;;;;;;5.19;100.00;99602.47;5049150;28;20040;-29
2023/01/10 02:07:32;;;;;;;110.88;36.13;;;;;;;5.03;100.00;99596.50;5050321;28;20086;-27
2023/01/10 02:10:14;;;;;;;120.30;37.58;;;;;;;4.93;100.00;99582.00;5050688;28;20028;-25
2023/01/10 02:12:41;;;;;;;100.63;33.22;;;;;;;5.08;100.00;99585.34;5050712;28;20060;-27
2023/01/10 02:15:09;;;;;;;104.65;34.13;;;;;;;4.97;100.00;99570.03;5050342;28;20493;-27
2023/01/10 02:17:34;;;;;;;98.70;34.43;;;;;;;5.00;100.00;99577.56;5049002;28;20039;-27
2023/01/10 02:20:05;;;;;;;94.28;31.23;;;;;;;4.74;100.00;99562.34;5050255;28;20420;-30
2023/01/10 02:22:58;;;;;;;95.05;33.30;;;;;;;4.92;100.00;99580.34;5050517;28;20036;-27
2023/01/10 02:25:24;;;;;;;114.10;32.55;;;;;;;4.82;100.00;99581.53;5050213;28;20045;-28
2023/01/10 02:28:20;;;;;;;115.43;35.53;;;;;;;4.95;100.00;99572.06;5048741;28;20102;-27
2023/01/10 02:30:55;;;;;;;110.07;32.80;;;;;;;4.92;100.00;99549.47;5050544;28;20047;-28
2023/01/10 02:33:56;;;;;;;106.75;32.88;;;;;;;4.95;100.00;99548.28;5050231;28;20033;-26
2023/01/10 02:36:25;;;;;;;119.65;35.28;;;;;;;5.06;100.00;99544.25;5049081;28;20119;-27
2023/01/10 02:38:53;;;;;;;;;;;;;;;4.98;100.00;99537.31;5050982;28;20075;-26
2023/01/10 02:41:27;;;;;;;99.78;32.47;;;;;;;4.96;100.00;99534.03;5050078;28;20000;-26
2023/01/10 02:44:01;;;;;;;121.38;32.67;;;;;;;4.95;100.00;99540.34;5048983;28;20052;-27
2023/01/10 02:46:30;;;;;;;109.55;33.03;;;;;;;4.98;100.00;99532.03;5049819;28;20041;-26
2023/01/10 02:48:55;;;;;;;124.10;36.45;;;;;;;4.79;100.00;99513.22;5048755;28;20029;-25
2023/01/10 02:51:23;;;;;;;121.25;34.13;;;;;;;4.90;100.00;99501.28;5050226;28;20374;-26
2023/01/10 02:54:06;;;;;;;116.35;34.78;;;;;;;5.08;100.00;99521.09;5049940;28;20028;-27
2023/01/10 02:56:55;;;;;;;131.43;36.03;;;;;;;5.22;100.00;99534.16;5049612;28;20465;-26
2023/01/10 02:59:40;;;;;;;118.13;33.65;;;;;;;5.12;100.00;99520.50;5050042;28;20024;-26
2023/01/10 03:02:34;;;;;;;128.93;34.78;;;;;;;4.88;100.00;99505.94;5049349;28;20063;-27
2023/01/10 03:05:17;;;;;;;124.95;34.75;;;;;;;5.16;100.00;99524.38;5048203;28;20057;-26
2023/01/10 03:08:00;;;;;;;118.90;35.97;;;;;;;5.10;100.00;99530.44;5049775;28;20039;-25
2023/01/10 03:10:36;;;;;;;134.57;36.05;;;;;;;5.10;100.00;99538.38;5049476;28;20021;-27
2023/01/10 03:13:18;;;;;;;132.95;35.75;;;;;;;5.11;100.00;99526.81;5049987;28;20044;-26
2023/01/10 03:15:47;;;;;;;139.70;36.35;;;;;;;5.04;100.00;99528.59;5048062;28;20025;-28
2023/01/10 03:18:22;;;;;;;165.30;39.25;;;;;;;4.97;100.00;99525.94;5049591;28;20041;-28
2023/01/10 03:20:50;;;;;;;153.02;39.60;;;;;;;5.19;100.00;99529.28;5049552;28;20028;-28
2023/01/10 03:23:17;;;;;;;143.00;37.55;;;;;;;5.11;100.00;99518.88;5049496;28;20037;-27
2023/01/10 03:25:45;;;;;;;154.73;38.17;;;;;;;5.02;100.00;99522.69;5049128;28;20053;-26
2023/01/10 03:28:14;;;;;;;140.80;38.00;;;;;;;5.10;100.00;99511.94;5047499;28;20057;-26
2023/01/10 03:30:47;;;;;;;142.98;37.20;;;;;;;5.08;100.00;99506.03;5049302;28;20505;-30
2023/01/10 03:33:16;;;;;;;166.32;40.72;;;;;;;4.90;100.00;99466.94;5049427;28;20029;-25
2023/01/10 03:35:45;;;;;;;147.75;39.22;;;;;;;5.14;100.00;99488.59;5049145;28;20524;-25
2023/01/10 03:38:42;;;;;;;153.10;42.15;;;;;;;5.26;100.00;99496.78;5049089;28;20091;-26
2023/01/10 03:41:23;;;;;;;153.10;39.20;;;;;;;4.99;100.00;99491.38;5048079;28;20044;-26
2023/01/10 03:47:29;;;;;;;146.07;37.72;;;;;;;5.10;100.00;99498.72;5048184;28;20036;-28
2023/01/10 03:50:18;;;;;;;153.10;41.15;;;;;;;5.11;100.00;99525.97;5049237;28;20860;-25
2023/01/10 03:52:44;;;;;;;143.65;37.25;;;;;;;4.67;100.00;99498.13;5048897;28;20501;-25
2023/01/10 03:55:12;;;;;;;150.88;39.42;;;;;;;4.95;100.00;99506.81;5050045;28;20033;-25
2023/01/10 03:57:41;;;;;;;145.50;39.50;;;;;;;4.88;100.00;99486.63;5051614;28;20051;-25
2023/01/10 04:00:08;;;;;;;146.27;40.10;;;;;;;5.04;100.00;99486.31;5052781;28;20029;-27
2023/01/10 04:02:33;;;;;;;154.73;38.92;;;;;;;4.91;100.00;99510.03;5052888;28;20056;-26
2023/01/10 04:04:59;;;;;;;124.78;38.45;;;;;;;4.83;100.00;99503.91;5053122;28;20116;-28
2023/01/10 04:07:24;;;;;;;136.35;36.97;;;;;;;4.87;100.00;99479.75;5052812;28;20095;-26
2023/01/10 04:09:50;;;;;;;129.85;37.13;;;;;;;4.87;100.00;99488.47;5052843;28;20103;-28
2023/01/10 04:12:16;;;;;;;129.95;39.15;;;;;;;4.89;100.00;99472.44;5052521;28;20493;-27
2023/01/10 04:14:41;;;;;;;129.25;37.72;;;;;;;4.89;100.00;99469.78;5052973;28;20545;-28
2023/01/10 04:17:07;;;;;;;133.73;37.20;;;;;;;5.08;100.00;99462.94;5052927;28;20100;-29
2023/01/10 04:19:32;;;;;;;140.85;39.75;;;;;;;5.00;100.00;99464.75;5051308;28;20116;-29
2023/01/10 04:21:58;;;;;;;113.57;35.75;;;;;;;4.89;100.00;99449.47;5052864;28;20021;-28
2023/01/10 04:24:23;;;;;;;130.02;41.70;;;;;;;5.08;100.00;99429.41;5052368;28;20029;-26
2023/01/10 04:26:49;;;;;;;129.63;37.33;;;;;;;5.10;100.00;99432.66;5052591;28;20044;-26
2023/01/10 04:29:14;;;;;;;140.57;39.55;;;;;;;5.23;100.00;99466.25;5052685;28;20095;-27
2023/01/10 04:31:40;;;;;;;146.70;38.35;;;;;;;5.20;100.00;99448.97;5052731;28;20538;-27
2023/01/10 04:34:07;;;;;;;159.25;43.72;;;;;;;4.94;100.00;99431.19;5052261;28;20029;-26
2023/01/10 04:36:32;;;;;;;177.52;53.50;;;;;;;4.78;100.00;99415.66;5052395;28;20025;-25
2023/01/10 04:38:58;;;;;;;161.63;42.28;;;;;;;4.91;100.00;99460.66;5052070;28;20029;-26
2023/01/10 04:41:23;;;;;;;137.60;40.03;;;;;;;4.93;100.00;99476.31;5052128;28;20536;-27
2023/01/10 04:43:48;;;;;;;140.05;40.72;;;;;;;4.86;100.00;99470.97;5052363;28;20029;-26
2023/01/10 04:46:14;;;;;;;142.35;40.42;;;;;;;4.65;100.00;99437.56;5050736;28;20033;-25
2023/01/10 04:48:40;;;;;;;147.23;44.92;;;;;;;4.80;100.00;99438.25;5052359;28;20150;-28
2023/01/10 04:51:05;;;;;;;139.40;39.47;;;;;;;4.76;100.00;99447.59;5052083;28;20036;-26
2023/01/10 04:53:30;;;;;;;136.40;38.08;;;;;;;4.93;100.00;99448.06;5052102;28;20409;-26
2023/01/10 04:56:04;;;;;;;122.93;38.72;;;;;;;4.92;100.00;99467.56;5051431;28;20029;-25
2023/01/10 04:58:35;;;;;;;129.40;39.17;;;;;;;5.05;100.00;99464.16;5052256;28;20059;-26
2023/01/10 05:01:07;;;;;;;145.32;43.38;;;;;;;5.23;100.00;99467.06;5052134;28;20102;-26
2023/01/10 05:03:32;;;;;;;143.35;40.35;;;;;;;5.06;100.00;99449.94;5051894;28;20392;-28
2023/01/10 05:05:58;;;;;;;127.18;36.33;;;;;;;5.05;100.00;99427.16;5050395;28;20504;-26
2023/01/10 05:08:23;;;;;;;128.38;37.83;;;;;;;4.97;100.00;99437.91;5050466;28;20021;-25
2023/01/10 05:10:48;;;;;;;129.05;39.03;;;;;;;5.09;100.00;99433.69;5052350;28;20033;-26
2023/01/10 05:13:14;;;;;;;128.30;39.70;;;;;;;5.15;100.00;99438.19;5051669;28;20021;-25
2023/01/10 05:15:39;;;;;;;135.60;37.97;;;;;;;5.07;100.00;99451.56;5050301;28;20036;-27
2023/01/10 05:18:05;;;;;;;127.35;39.10;;;;;;;5.08;100.00;99452.38;5051428;28;20063;-29
2023/01/10 05:20:30;;;;;;;141.35;41.75;;;;;;;5.13;100.00;99413.78;5051710;28;20116;-27
2023/01/10 05:22:55;;;;;;;127.40;41.35;;;;;;;5.30;100.00;99408.13;5051498;28;20440;-26
2023/01/10 05:25:21;;;;;;;135.27;41.97;;;;;;;5.09;100.00;99417.00;5051235;28;20045;-27
2023/01/10 05:27:47;;;;;;;130.65;41.50;;;;;;;5.26;100.00;99441.25;5051419;28;20025;-25
2023/01/10 05:30:13;;;;;;;131.40;39.83;;;;;;;5.34;100.00;99444.53;5051357;28;20032;-25
2023/01/10 05:32:38;;;;;;;133.73;42.90;;;;;;;5.17;100.00;99436.16;5051307;28;20021;-26
2023/01/10 05:35:04;;;;;;;126.65;41.72;;;;;;;5.26;100.00;99444.72;5049839;28;20035;-27
2023/01/10 05:37:30;;;;;;;146.77;51.17;;;;;;;5.30;100.00;99429.28;5051398;28;20564;-27
2023/01/10 05:39:55;;;;;;;160.98;53.38;;;;;;;5.13;100.00;99411.13;5051265;28;20060;-26
2023/01/10 05:42:20;;;;;;;124.75;38.58;;;;;;;5.03;100.00;99424.72;5051251;28;20029;-25
2023/01/10 05:44:46;;;;;;;118.35;39.50;;;;;;;5.23;100.00;99416.84;5051163;28;20087;-28
2023/01/10 05:47:11;;;;;;;134.48;41.78;;;;;;;5.14;100.00;99404.81;5051106;28;20512;-25
2023/01/10 05:49:37;;;;;;;131.48;39.45;;;;;;;5.31;100.00;99409.72;5051120;28;20044;-25
2023/01/10 05:52:02;;;;;;;129.85;40.90;;;;;;;5.12;100.00;99385.69;5050628;28;20389;-28
2023/01/10 05:54:28;;;;;;;121.25;40.08;;;;;;;5.24;100.00;99399.97;5051543;28;20481;-26
2023/01/10 05:56:54;;;;;;;149.90;45.47;;;;;;;5.23;100.00;99401.00;5050527;28;20072;-27
2023/01/10 05:59:19;;;;;;;139.23;45.05;;;;;;;5.20;100.00;99393.44;5050616;28;20042;-25
2023/01/10 06:01:45;;;;;;;140.98;46.15;;;;;;;4.92;100.00;99384.84;5049208;28;20021;-26
2023/01/10 06:04:10;;;;;;;132.00;40.15;;;;;;;4.97;100.00;99370.03;5050781;28;20060;-26
2023/01/10 06:06:36;;;;;;;127.30;42.63;;;;;;;4.86;100.00;99381.16;5050551;28;20029;-24
2023/01/10 06:09:01;;;;;;;138.00;41.97;;;;;;;4.88;100.00;99410.03;5050391;28;20094;-26
2023/01/10 06:11:28;;;;;;;140.73;42.10;;;;;;;4.77;100.00;99346.19;5049347;28;20058;-28
2023/01/10 06:13:57;;;;;;;153.90;48.00;;;;;;;4.71;100.00;99378.66;5050663;28;20115;-28
2023/01/10 06:16:23;;;;;;;143.10;44.38;;;;;;;4.96;100.00;99401.91;5050254;28;20024;-28
2023/01/10 06:18:48;;;;;;;148.80;45.03;;;;;;;4.92;100.00;99405.97;5050127;28;20047;-25
2023/01/10 06:21:14;;;;;;;135.68;41.55;;;;;;;5.02;100.00;99401.13;5050468;28;20036;-25
2023/01/10 06:23:40;;;;;;;145.70;42.63;;;;;;;5.22;100.00;99407.28;5050271;28;20036;-30
2023/01/10 06:26:05;;;;;;;155.07;43.25;;;;;;;5.23;100.00;99379.84;5048494;28;20049;-29
2023/01/10 06:28:31;;;;;;;158.98;46.83;;;;;;;5.26;100.00;99396.31;5050335;28;20445;-32
2023/01/10 06:30:56;;;;;;;145.57;44.72;;;;;;;5.14;100.00;99373.09;5049949;28;20623;-27
2023/01/10 06:33:22;;;;;;;139.30;42.70;;;;;;;4.94;100.00;99378.31;5050139;28;20025;-27
2023/01/10 06:35:47;;;;;;;146.25;41.88;;;;;;;4.94;100.00;99385.44;5049653;28;20028;-27
2023/01/10 06:38:13;;;;;;;140.00;43.58;;;;;;;5.21;100.00;99355.44;5050149;28;20465;-27
2023/01/10 06:40:39;;;;;;;138.85;42.92;;;;;;;5.43;100.00;99371.94;5050029;28;20035;-28
2023/01/10 06:43:05;;;;;;;145.77;42.08;;;;;;;5.50;100.00;99379.88;5049929;28;20029;-27
2023/01/10 06:45:30;;;;;;;197.73;59.22;;;;;;;5.29;100.00;99345.66;5049905;28;20029;-28
2023/01/10 06:47:56;;;;;;;167.02;49.63;;;;;;;5.50;100.00;99376.41;5049729;28;20060;-30
2023/01/10 06:50:22;;;;;;;148.02;46.03;;;;;;;5.49;100.00;99367.66;5049658;28;20036;-27
2023/01/10 06:52:57;;;;;;;148.55;43.88;;;;;;;5.51;100.00;99362.97;5049639;28;20021;-27
2023/01/10 06:55:23;;;;;;;147.80;45.22;;;;;;;5.22;100.00;99359.69;5049854;28;20032;-30
2023/01/10 06:58:00;;;;;;;144.20;44.85;;;;;;;5.42;100.00;99358.91;5048189;28;20065;-26
2023/01/10 07:00:26;;;;;;;130.45;40.83;;;;;;;5.37;100.00;99370.09;5049587;28;20021;-27
2023/01/10 07:02:53;;;;;;;142.73;43.25;;;;;;;5.25;100.00;99332.06;5049614;28;20536;-28
2023/01/10 07:05:19;;;;;;;134.95;40.85;;;;;;;5.23;100.00;99356.06;5049937;28;20098;-26
2023/01/10 07:07:45;;;;;;;138.48;40.15;;;;;;;5.43;100.00;99344.66;5044567;28;20125;-29
2023/01/10 07:10:10;;;;;;;226.20;77.03;;;;;;;5.36;100.00;99343.84;5029388;28;20124;-26
2023/01/10 07:12:36;;;;;;;163.48;52.85;;;;;;;5.46;100.00;99333.69;5028134;28;20064;-26
2023/01/10 07:15:01;;;;;;;145.82;43.58;;;;;;;5.57;100.00;99346.28;5029484;28;20022;-27
2023/01/10 07:17:28;;;;;;;146.43;43.63;;;;;;;5.54;100.00;99325.56;5029279;28;20025;-30
2023/01/10 07:19:54;;;;;;;138.98;41.22;;;;;;;5.46;100.00;99331.06;5029530;28;20475;-26
2023/01/10 07:22:19;;;;;;;139.73;43.72;;;;;;;5.60;100.00;99345.91;5029335;28;20032;-25
2023/01/10 07:24:45;;;;;;;158.82;47.60;;;;;;;5.46;100.00;99357.50;5028996;28;20030;-28
2023/01/10 07:27:10;;;;;;;114.75;41.35;;;;;;;5.21;100.00;99344.03;5028272;28;20025;-26
2023/01/10 07:29:36;;;;;;;161.88;47.72;;;;;;;5.09;100.00;99322.69;5028607;28;20022;-27
2023/01/10 07:32:01;;;;;;;171.65;51.75;;;;;;;5.19;100.00;99338.13;5028939;28;20037;-28
2023/01/10 07:34:26;;;;;;;147.93;41.65;;;;;;;5.13;100.00;99342.41;5029181;28;20456;-26
2023/01/10 07:36:52;;;;;;;146.43;43.53;;;;;;;5.16;100.00;99322.69;5029284;28;20032;-27
2023/01/10 07:39:17;;;;;;;172.52;47.70;;;;;;;5.24;100.00;99341.81;5027836;28;20557;-31
2023/01/10 07:41:43;;;;;;;175.82;49.38;;;;;;;5.35;100.00;99326.34;5027971;28;20037;-26
2023/01/10 07:44:08;;;;;;;140.02;40.38;;;;;;;5.27;100.00;99334.47;5029020;28;20473;-26
2023/01/10 07:46:33;;;;;;;134.52;44.25;;;;;;;5.38;100.00;99315.38;5028873;28;20029;-26
2023/01/10 07:48:59;;;;;;;146.43;44.20;;;;;;;5.43;100.00;99308.47;5029170;28;20022;-29
2023/01/10 07:51:24;;;;;;;168.20;46.00;;;;;;;5.23;100.00;99307.63;5029080;28;20033;-27
2023/01/10 07:53:50;;;;;;;170.70;44.13;;;;;;;5.22;100.00;99322.69;5029437;28;20454;-29
2023/01/10 07:56:15;;;;;;;156.90;42.60;;;;;;;5.32;100.00;99318.84;5028777;28;20026;-26
2023/01/10 07:58:41;;;;;;;155.50;44.72;;;;;;;5.24;100.00;99299.50;5028936;28;20030;-29
2023/01/10 08:01:06;;;;;;;163.93;44.13;;;;;;;5.05;100.00;99284.47;5028828;28;20416;-26
2023/01/10 08:03:32;;;;;;;147.75;41.70;;;;;;;5.27;100.00;99286.91;5027549;28;20056;-28
2023/01/10 08:06:02;;;;;;;148.57;43.20;;;;;;;5.40;100.00;99285.06;5029060;28;20508;-28
2023/01/10 08:08:28;;;;;;;160.80;42.50;;;;;;;5.46;100.00;99286.09;5028895;28;20025;-32
2023/01/10 08:10:54;;;;;;;171.02;58.63;;;;;;;5.45;100.00;99268.59;5029135;28;20040;-26
2023/01/10 08:13:20;;;;;;;147.82;46.95;;;;;;;5.54;100.00;99272.66;5028913;28;20029;-26
2023/01/10 08:15:48;;;;;;;145.18;40.10;;;;;;;5.61;100.00;99262.88;5028763;28;20044;-26
2023/01/10 08:18:14;;;;;;;147.55;37.38;;;;;;;5.73;100.00;99275.47;5028676;28;20022;-27
2023/01/10 08:20:40;;;;;;;124.28;38.03;;;;;;;5.63;100.00;99260.81;5029270;28;20056;-26
2023/01/10 08:23:05;;;;;;;134.60;36.38;;;;;;;5.55;100.00;99262.88;5028906;28;20021;-27
2023/01/10 08:25:31;;;;;;;133.45;37.50;;;;;;;5.54;100.00;99251.50;5028586;28;20140;-29
2023/01/10 08:27:56;;;;;;;143.38;40.35;;;;;;;5.60;100.00;99229.53;5028854;28;20028;-27
2023/01/10 08:30:22;;;;;;;147.50;41.55;;;;;;;5.78;100.00;99246.56;5028302;28;20481;-26
2023/01/10 08:32:48;;;;;;;154.85;43.20;;;;;;;5.80;100.00;99255.09;5027626;28;20029;-26
2023/01/10 08:35:13;;;;;;;153.70;43.70;;;;;;;5.71;100.00;99254.50;5028801;28;20064;-26
2023/01/10 08:37:38;;;;;;;147.18;39.05;;;;;;;5.63;100.00;99266.13;5028824;28;20030;-27
2023/01/10 08:40:04;;;;;;;139.25;37.05;;;;;;;5.54;100.00;99267.38;5028416;28;20026;-28
2023/01/10 08:42:30;;;;;;;133.55;38.60;;;;;;;5.50;100.00;99266.16;5031617;28;20042;-26
2023/01/10 08:44:56;;;;;;;142.13;42.03;;;;;;;5.22;100.00;99237.28;5032124;28;20037;-28
2023/01/10 08:47:21;;;;;;;156.48;46.38;;;;;;;5.17;100.00;99214.13;5032353;28;20033;-29
2023/01/10 08:49:48;;;;;;;140.88;38.53;;;;;;;5.42;100.00;99227.50;5032233;28;20036;-27
2023/01/10 08:52:14;;;;;;;151.32;40.38;;;;;;;5.64;100.00;99220.16;5031984;28;20505;-27
2023/01/10 08:54:39;;;;;;;145.40;42.00;;;;;;;5.59;100.00;99227.88;5032148;28;20021;-26
2023/01/10 08:57:05;;;;;;;135.13;40.45;;;;;;;5.60;100.00;99218.94;5032024;28;20077;-29
2023/01/10 08:59:30;;;;;;;119.47;35.85;;;;;;;5.54;100.00;99235.63;5031909;28;20087;-27
2023/01/10 09:01:57;;;;;;;125.43;37.63;;;;;;;5.50;100.00;99234.41;5031655;28;20041;-26
2023/01/10 09:04:23;;;;;;;124.00;33.05;;;;;;;5.37;100.00;99251.13;5031901;28;20036;-26
2023/01/10 09:06:49;;;;;;;132.10;38.13;;;;;;;5.38;100.00;99246.63;5030693;28;20089;-27
2023/01/10 09:09:14;;;;;;;123.93;33.88;;;;;;;5.29;100.00;99221.41;5031901;28;20523;-27
2023/01/10 09:11:39;;;;;;;106.95;31.25;;;;;;;5.33;100.00;99217.34;5032073;28;20033;-29
2023/01/10 09:14:06;;;;;;;94.97;29.38;;;;;;;5.28;100.00;99182.78;5031286;28;20492;-30
2023/01/10 09:16:31;;;;;;;92.00;29.05;;;;;;;5.43;100.00;99197.41;5031942;28;20033;-27
2023/01/10 09:18:57;;;;;;;91.63;27.45;;;;;;;5.48;100.00;99186.22;5031722;28;20087;-27
2023/01/10 09:21:22;;;;;;;79.07;26.08;;;;;;;5.45;100.00;99194.53;5031863;28;20116;-27
2023/01/10 09:23:48;;;;;;;87.68;25.45;;;;;;;5.26;100.00;99195.41;5031644;28;20029;-31
2023/01/10 09:26:13;;;;;;;72.43;25.38;;;;;;;5.20;100.00;99187.25;5029821;28;20045;-27
2023/01/10 09:28:38;;;;;;;69.47;25.15;;;;;;;5.13;100.00;99181.19;5031388;28;20033;-28
2023/01/10 09:31:07;;;;;;;68.57;24.13;;;;;;;5.14;100.00;99159.00;5030446;28;20033;-27
2023/01/10 09:33:33;;;;;;;71.03;24.33;;;;;;;5.23;100.00;99159.59;5031589;28;20029;-30
2023/01/10 09:35:58;;;;;;;69.40;24.98;;;;;;;5.21;100.00;99162.47;5030081;28;20429;-27
2023/01/10 09:38:24;;;;;;;67.45;24.10;;;;;;;5.11;100.00;99135.66;5031303;28;20032;-28
2023/01/10 09:41:10;;;;;;;68.00;26.00;;;;;;;5.30;100.00;99171.00;5013485;28;20040;-28
2023/01/10 09:44:09;;;;;;;43.58;19.15;;;;;;;5.11;100.00;99148.88;5031415;28;20516;-26
2023/01/10 09:46:56;;;;;;;69.15;24.95;;;;;;;4.96;100.00;99172.03;5031282;28;20504;-30
2023/01/10 09:49:33;;;;;;;60.30;24.65;;;;;;;5.12;100.00;99139.09;5036176;28;20021;-31
2023/01/10 09:51:59;;;;;;;71.35;26.10;;;;;;;5.05;100.00;99110.06;5031371;28;20041;-33
2023/01/10 09:54:32;;;;;;;64.43;24.95;;;;;;;5.04;100.00;99129.56;5030590;28;20037;-30
2023/01/10 09:56:59;;;;;;;79.32;29.00;;;;;;;5.20;100.00;99128.31;5031227;28;20061;-26
2023/01/10 09:59:36;;;;;;;73.60;31.97;;;;;;;5.17;100.00;99113.69;5030975;28;20051;-27
2023/01/10 10:02:19;;;;;;;69.68;26.45;;;;;;;5.08;100.00;99114.09;5030550;28;20296;-27
2023/01/10 10:04:59;;;;;;;64.70;25.88;;;;;;;5.02;100.00;99121.00;5030904;28;20029;-27
2023/01/10 10:07:25;;;;;;;72.97;26.58;;;;;;;4.97;100.00;99091.78;5030937;28;20481;-28
2023/01/10 10:09:50;;;;;;;77.13;29.35;;;;;;;4.96;100.00;99106.00;5030769;28;20091;-28
2023/01/10 10:12:40;;;;;;;69.15;27.92;;;;;;;4.72;100.00;99078.38;5030518;28;20416;-29
2023/01/10 10:15:14;;;;;;;80.47;31.23;;;;;;;5.05;100.00;99115.34;5029407;28;20036;-28
2023/01/10 10:17:53;;;;;;;85.57;31.80;;;;;;;5.00;100.00;99096.63;5029169;28;20036;-27
2023/01/10 10:21:02;;;;;;;73.05;28.92;;;;;;;5.16;100.00;99104.13;5030403;28;20433;-27
2023/01/10 10:23:45;;;;;;;70.53;27.83;;;;;;;5.21;100.00;99092.91;5027891;28;20052;-32
2023/01/10 10:26:26;;;;;;;69.32;28.77;;;;;;;5.12;100.00;99084.41;5029757;28;20528;-29
2023/01/10 10:29:02;;;;;;;77.60;30.90;;;;;;;5.38;100.00;99085.34;5030477;28;20028;-26
2023/01/10 10:31:46;;;;;;;70.18;28.08;;;;;;;5.34;100.00;99076.22;5030592;28;20482;-27
2023/01/10 10:34:35;;;;;;;80.95;33.33;;;;;;;5.43;100.00;99070.50;5030125;28;20033;-28
2023/01/10 10:37:22;;;;;;;68.50;29.27;;;;;;;5.34;100.00;99034.72;5035850;28;20107;-27
2023/01/10 10:39:56;;;;;;;73.05;30.40;;;;;;;5.52;100.00;99063.13;5037361;28;20033;-27
2023/01/10 10:42:28;;;;;;;100.28;42.47;;;;;;;5.78;100.00;99050.78;5040524;28;20048;-29
2023/01/10 10:45:01;;;;;;;126.03;50.50;;;;;;;5.74;100.00;99020.47;5049572;28;20158;-29
2023/01/10 10:47:33;;;;;;;75.32;31.10;;;;;;;5.51;100.00;99019.19;5049712;28;20089;-28
2023/01/10 10:50:15;;;;;;;60.20;26.23;;;;;;;5.44;100.00;99031.63;5049414;28;20405;-28
2023/01/10 10:52:43;;;;;;;68.43;28.65;;;;;;;5.44;100.00;98999.91;5049712;28;20033;-28
2023/01/10 10:55:17;;;;;;;71.43;32.92;;;;;;;5.40;100.00;99001.34;5049377;28;20032;-30
2023/01/10 10:57:45;;;;;;;63.40;28.60;;;;;;;5.55;100.00;99024.88;5048333;28;20516;-29
2023/01/10 11:00:18;;;;;;;57.88;25.70;;;;;;;5.43;100.00;99000.91;5047881;28;20028;-30
2023/01/10 11:03:00;;;;;;;73.50;33.88;;;;;;;5.63;100.00;99004.25;5031589;28;20033;-27
2023/01/10 11:05:35;;;;;;;65.30;29.58;;;;;;;5.63;100.00;99012.19;5048804;28;20085;-27
2023/01/10 11:08:09;;;;;;;79.45;39.33;;;;;;;5.66;100.00;98994.28;5049213;28;20025;-27
2023/01/10 11:10:34;;;;;;;51.35;23.48;;;;;;;5.61;100.00;99003.66;5049555;28;20036;-27
2023/01/10 11:13:10;;;;;;;51.55;23.02;;;;;;;5.70;100.00;99037.78;5048991;28;20024;-27
2023/01/10 11:15:39;;;;;;;54.28;26.88;;;;;;;5.57;100.00;99015.69;5049368;28;20104;-27
2023/01/10 11:18:15;;;;;;;74.22;37.08;;;;;;;5.57;100.00;99036.84;5047899;28;20028;-26
2023/01/10 11:20:47;;;;;;;63.17;33.30;;;;;;;5.40;100.00;99006.63;5049417;28;20036;-27
2023/01/10 11:23:22;;;;;;;52.58;28.42;;;;;;;5.22;100.00;99021.34;5047740;28;20032;-26
2023/01/10 11:25:49;;;;;;;53.17;27.00;;;;;;;5.11;100.00;98998.22;5048780;28;20072;-27
2023/01/10 11:28:17;;;;;;;63.83;31.45;;;;;;;5.32;100.00;99009.53;5048862;28;20036;-27
2023/01/10 11:30:47;;;;;;;111.43;45.92;;;;;;;5.02;100.00;98989.69;5049193;28;20188;-26